GW1572 Weather Reports


Display with metric or nautical units.
time (UTC)temp
F
wind
direction
speed
MPH
gust
MPH
rain 1hr
in
rain 24hr
in
rain mn
in
humidity
%
barometer
mb
20221003102801 49 234 1.0 2.0 0.00 0.00 0.00 99 1024.7
20221003100602 49 287 0.0 0.0 0.00 0.00 0.00 99 1024.7
20221003095102 48 95 1.0 2.0 0.00 0.00 0.00 99 1024.7
20221003093903 47 103 1.0 2.0 0.00 0.00 0.00 99 1024.3
20221003092702 48 102 1.0 2.0 0.00 0.00 0.00 99 1024.3
20221003090801 48 101 1.0 2.0 0.00 0.00 0.00 99 1024.0
20221003085601 48 101 2.0 2.0 0.00 0.00 0.00 99 1024.3
20221003084402 48 99 1.0 2.0 0.00 0.00 0.00 99 1024.0
20221003083202 48 101 2.0 2.0 0.00 0.00 0.00 99 1024.0
20221003082002 49 97 1.0 2.0 0.00 0.00 0.00 99 1024.0
20221003081101 49 99 1.0 2.0 0.00 0.00 0.00 99 1024.0
20221003075901 49 94 2.0 2.0 0.00 0.00 0.00 99 1024.0
20221003074701 49 88 1.0 2.0 0.00 0.00 0.00 99 1023.7
20221003073502 49 105 1.0 2.0 0.00 0.00 0.00 99 1023.7
20221003071401 50 106 2.0 2.0 0.00 0.00 0.00 99 1023.7
20221003070203 50 105 1.0 2.0 0.00 0.00 0.00 99 1024.0
20221003065001 50 105 0.0 0.0 0.00 0.00 0.00 99 1023.7
20221003063802 50 98 1.0 2.0 0.00 0.00 0.00 99 1023.7
20221003062602 51 102 1.0 2.0 0.00 0.00 0.00 99 1023.7
20221003061403 51 96 0.0 0.0 0.00 0.00 0.00 99 1024.0
20221003060404 51 93 0.0 0.0 0.00 0.00 0.00 99 1023.7
20221003054901 51 92 0.0 0.0 0.00 0.00 0.00 99 1024.0
20221003054001 51 92 0.0 0.0 0.00 0.00 0.00 99 1024.0
20221003051602 51 99 1.0 2.0 0.00 0.00 0.00 99 1024.0
20221003050401 52 105 2.0 2.0 0.00 0.00 0.00 99 1024.0
20221003045401 52 104 1.0 2.0 0.00 0.00 0.00 99 1024.0
20221003043002 52 104 2.0 2.0 0.00 0.00 0.00 99 1024.0
20221003041802 52 101 2.0 3.0 0.00 0.00 0.00 99 1024.0
20221003034203 52 94 1.0 2.0 0.00 0.00 0.12 99 1024.0
20221003033004 52 99 2.0 2.0 0.00 0.00 0.12 99 1024.0
20221003030801 54 91 1.0 2.0 0.00 0.00 0.12 99 1024.0
20221003025604 54 91 1.0 2.0 0.00 0.00 0.12 99 1023.7
20221003024701 54 93 1.0 2.0 0.00 0.00 0.12 99 1023.7
20221003022801 55 88 1.0 2.0 0.00 0.00 0.12 99 1023.7
20221003021601 55 89 0.0 0.0 0.00 0.00 0.12 99 1023.7
20221003013902 55 89 1.0 2.0 0.00 0.00 0.12 99 1023.7
20221003013002 56 91 1.0 2.0 0.00 0.00 0.12 99 1023.7
20221003012002 56 92 2.0 2.0 0.00 0.00 0.12 99 1023.7
20221003010801 55 91 1.0 2.0 0.00 0.00 0.12 99 1023.7
20221003005602 55 91 1.0 2.0 0.00 0.00 0.12 99 1023.7
20221003002903 55 88 0.0 0.0 0.00 0.00 0.12 99 1023.3
20221003001702 56 91 2.0 2.0 0.00 0.00 0.12 99 1023.0
20221003000501 56 94 1.0 2.0 0.00 0.00 0.12 99 1023.0
20221002235304 56 94 1.0 2.0 0.00 0.00 0.12 99 1023.3
20221002234401 56 80 0.0 0.0 0.00 0.00 0.12 98 1023.0
20221002232904 56 8 0.0 0.0 0.00 0.00 0.12 98 1023.0
20221002232002 57 8 0.0 0.0 0.00 0.00 0.12 97 1023.0
20221002230802 57 343 0.0 0.0 0.00 0.00 0.12 96 1022.6
20221002225803 58 326 0.0 0.0 0.00 0.00 0.12 94 1022.6
20221002224901 58 349 0.0 0.0 0.00 0.00 0.12 92 1023.0
20221002223402 59 288 0.0 0.0 0.00 0.00 0.12 91 1022.6
20221002222402 59 319 0.0 0.0 0.00 0.00 0.12 92 1022.6
20221002221401 59 302 0.0 0.0 0.00 0.00 0.12 89 1022.6
20221002220205 60 82 0.0 0.0 0.00 0.00 0.12 88 1022.3
20221002215301 59 253 1.0 2.0 0.00 0.00 0.12 87 1022.3
20221002204302 60 187 2.0 2.0 0.00 0.00 0.12 87 1021.6
20221002202201 59 141 2.0 2.0 0.00 0.00 0.12 87 1021.3
20221002201002 59 251 1.0 2.0 0.00 0.00 0.12 86 1021.3
20221002195802 60 77 1.0 2.0 0.00 0.00 0.12 87 1021.3
20221002194602 59 258 2.0 3.0 0.00 0.00 0.12 88 1020.9
20221002193701 59 141 2.0 3.0 0.00 0.00 0.12 87 1020.9
20221002192503 59 266 3.0 4.0 0.00 0.00 0.12 87 1020.9
20221002191301 58 198 2.0 2.0 0.00 0.00 0.12 88 1020.9
20221002183403 58 170 2.0 3.0 0.00 0.00 0.12 89 1020.9
20221002182201 58 94 2.0 2.0 0.00 0.00 0.12 91 1020.9
20221002175802 57 168 0.0 0.0 0.00 0.00 0.12 94 1020.9
20221002174804 57 220 1.0 2.0 0.00 0.00 0.12 96 1020.9
20221002173802 56 317 0.0 0.0 0.00 0.00 0.12 97 1021.3
20221002171701 56 224 1.0 2.0 0.00 0.00 0.12 97 1020.9
20221002170502 56 30 1.0 2.0 0.00 0.00 0.12 99 1020.9
20221002165304 56 270 3.0 3.0 0.00 0.00 0.12 99 1020.9
20221002164102 56 118 1.0 2.0 0.00 0.00 0.12 99 1020.9
20221002163202 56 260 1.0 2.0 0.00 0.00 0.12 99 1020.6
20221002162201 56 259 3.0 3.0 0.00 0.00 0.12 99 1020.6
20221002161002 55 200 0.0 0.0 0.00 0.00 0.12 99 1020.6
20221002155502 55 122 2.0 3.0 0.00 0.00 0.12 99 1020.6
20221002154302 55 289 2.0 3.0 0.00 0.00 0.12 99 1020.6
20221002153101 54 110 2.0 2.0 0.00 0.00 0.12 99 1020.6
20221002152201 54 214 2.0 3.0 0.00 0.00 0.12 99 1019.9
20221002151101 54 247 2.0 3.0 0.00 0.00 0.12 99 1020.3
20221002150102 54 198 1.0 2.0 0.00 0.00 0.12 99 1020.3
20221002145202 54 134 2.0 3.0 0.00 0.00 0.12 99 1019.9
20221002143002 54 224 3.0 4.0 0.00 0.00 0.12 99 1019.9
20221002142101 54 99 2.0 3.0 0.00 0.00 0.12 99 1019.9
20221002141102 54 176 1.0 2.0 0.00 0.00 0.12 99 1019.6
20221002135002 54 289 2.0 3.0 0.00 0.00 0.12 99 1019.6
20221002132901 54 237 3.0 4.0 0.00 0.00 0.12 99 1019.3
20221002131702 53 210 2.0 2.0 0.00 0.00 0.12 99 1019.3
20221002130502 53 67 1.0 2.0 0.00 0.00 0.12 99 1018.9
20221002125304 53 221 2.0 2.0 0.00 0.00 0.12 99 1018.9
20221002124002 53 217 2.0 2.0 0.00 0.00 0.12 99 1018.9
20221002122804 53 258 1.0 2.0 0.00 0.00 0.12 99 1018.6
20221002120702 53 214 1.0 2.0 0.00 0.00 0.12 99 1018.6
20221002115801 53 262 2.0 3.0 0.00 0.00 0.12 99 1018.2
20221002114802 53 240 1.0 2.0 0.00 0.00 0.12 99 1018.2
20221002113601 53 243 3.0 3.0 0.00 0.00 0.11 99 1018.2
20221002112402 53 254 0.0 0.0 0.00 0.00 0.11 99 1018.2
20221002111201 53 211 1.0 2.0 0.00 0.00 0.11 99 1017.9
20221002110301 53 211 1.0 2.0 0.00 0.00 0.11 99 1017.9
20221002105102 53 225 2.0 4.0 0.00 0.00 0.11 99 1017.6
20221002103902 53 212 2.0 3.0 0.00 0.00 0.11 99 1017.6